Hauptseite
METAR-TAF:

METAR-TAF

Flughäfen :

Nürnberg, Deutschland

Flughafen Nürnberg

Breite: 49-30N, Länge: 011-03E, Höhe: 318 m

Beobachtung

Neuester Wetterbericht von vor 39 Minuten, um 08:20 UTC
Wind 5 kt aus Südost
Temperatur 5°C
Luftfeuchtigkeit 70%
Luftdruck 1010 hPa
Sichtweite 10 km oder mehr
Aufgelockert bewölkt in der Höhe von 3600 ft

METAR: EDDN 270820Z 14005KT 9999 SCT036 05/M00 Q1010 NOSIG

Zeit: 09:59 (08:59 UTC)

Prognose

Neuester Wetterbericht von vor 3 Stunden und 59 Minuten, um 05:00 UTC
Gültige Prognose vom 27 um 06 UTC bis 28 um 06 UTC
Wind 5 kt aus Ost/Südost
Sichtweite 10 km oder mehr
Aufgelockert bewölkt in der Höhe von 4000 ft
Übergehend zu
vom 27 um 08 UTC bis 27 um 10 UTC
Wind 8 kt aus Süd
Zeitweise
vom 28 um 01 UTC bis 28 um 04 UTC
Wind 15 kt aus West/Südwest, Böen bis zu 25 kt
Regen

TAF: EDDN 270500Z 2706/2806 11005KT 9999 SCT040 BECMG 2708/2710 17008KT TEMPO 2801/2804 25015G25KT RA

Wetterbeobachtungen und Prognosen von mehr als 4000 Flughäfen (METAR und TAF Bericht).

Die verfügbaren Stationen werden durch gelbe und rote Markierungen auf der Karte dargestellt.

Führen Sie die Maus auf sie, um den Namen der Station zu sehen.

Darauf klicken, um die Beobachtung von Wetterbeobachtungen und Prognosen zu sehen.

Um die Karte zu ändern : klicken Sie auf den grünen Tasten mit einem schwarzen Kreuz Zum Vergrößern, auf den grünen Button mit einem Gedankenstrich zu verkleinern, oder auf die grünen Pfeile für benachbarte Karten.


METAR-TAF: